Ana Sayfa
METAR-TAF:

METAR-TAF

Havaalanları :

Easton, Maryland, Amerika Birleşik Devletleri

Enlem: 38-48N, Boylam: 076-04W, yükseklik: 22 m

Güncel hava durumu gözlemi

Rapor saat 02:40 UTC de 12 dakika önce yapıldı.
Rüzgar güneydan 5 kt
Sıcaklık 30°C
Nem 79%
Basınç 1015 hPa
Görüş mesafesi: 16.1 km
Açık gökyüzü

METAR: KESN 200240Z AUTO 19005KT 10SM CLR 30/26 A2996 RMK AO2 T03030261

Saat: 22:52 (02:52 UTC)


TAF: eksik

4.000'den fazla havaalanı için hava durumu gözlemleri ve tahminleri (METAR ve TAF raporları).

Kullanılabilir istasyonlar harita üzerinde sarı ve kırmızı noktalarla gösterilir.

İstasyonun adını görmek için fareyi noktanın üzerinde gezdirin.

Sonrasında hava gözlem ve tahminlerini görmek için tıklayın.

Haritayı değiştirmek için: yaklaştırmak için siyah artı işaretli yeşil düğmeye ve uzaklaştırmak için de eksi işaretli düğmeye hızla tıklayın; bitişik haritalar için yeşil okları kullanın.


METAR-TAF: